地図

経路データ

SID SEASON NUMBER BASIN SUBBASIN NAME ISO_TIME NATURE LAT LON WMO_WIND WMO_PRES WMO_AGENCY TRACK_TYPE DIST2LAND LANDFALL IFLAG USA_AGENCY USA_ATCF_ID USA_LAT USA_LON USA_RECORD USA_STATUS USA_WIND USA_PRES USA_SSHS USA_R34_NE USA_R34_SE USA_R34_SW USA_R34_NW USA_R50_NE USA_R50_SE USA_R50_SW USA_R50_NW USA_R64_NE USA_R64_SE USA_R64_SW USA_R64_NW USA_POCI USA_ROCI USA_RMW USA_EYE TOKYO_LAT TOKYO_LON TOKYO_GRADE TOKYO_WIND TOKYO_PRES TOKYO_R50_DIR TOKYO_R50_LONG TOKYO_R50_SHORT TOKYO_R30_DIR TOKYO_R30_LONG TOKYO_R30_SHORT TOKYO_LAND CMA_LAT CMA_LON CMA_CAT CMA_WIND CMA_PRES HKO_LAT HKO_LON HKO_CAT HKO_WIND HKO_PRES NEWDELHI_LAT NEWDELHI_LON NEWDELHI_GRADE NEWDELHI_WIND NEWDELHI_PRES NEWDELHI_CI NEWDELHI_DP NEWDELHI_POCI REUNION_LAT REUNION_LON REUNION_TYPE REUNION_WIND REUNION_PRES REUNION_TNUM REUNION_CI REUNION_RMW REUNION_R34_NE REUNION_R34_SE REUNION_R34_SW REUNION_R34_NW REUNION_R50_NE REUNION_R50_SE REUNION_R50_SW REUNION_R50_NW REUNION_R64_NE REUNION_R64_SE REUNION_R64_SW REUNION_R64_NW BOM_LAT BOM_LON BOM_TYPE BOM_WIND BOM_PRES BOM_TNUM BOM_CI BOM_RMW BOM_R34_NE BOM_R34_SE BOM_R34_SW BOM_R34_NW BOM_R50_NE BOM_R50_SE BOM_R50_SW BOM_R50_NW BOM_R64_NE BOM_R64_SE BOM_R64_SW BOM_R64_NW BOM_ROCI BOM_POCI BOM_EYE BOM_POS_METHOD BOM_PRES_METHOD NADI_LAT NADI_LON NADI_CAT NADI_WIND NADI_PRES WELLINGTON_LAT WELLINGTON_LON WELLINGTON_WIND WELLINGTON_PRES DS824_LAT DS824_LON DS824_STAGE DS824_WIND DS824_PRES TD9636_LAT TD9636_LON TD9636_STAGE TD9636_WIND TD9636_PRES TD9635_LAT TD9635_LON TD9635_WIND TD9635_PRES TD9635_ROCI NEUMANN_LAT NEUMANN_LON NEUMANN_CLASS NEUMANN_WIND NEUMANN_PRES MLC_LAT MLC_LON MLC_CLASS MLC_WIND MLC_PRES USA_GUST BOM_GUST BOM_GUST_PER REUNION_GUST REUNION_GUST_PER USA_SEAHGT USA_SEARAD_NE USA_SEARAD_SE USA_SEARAD_SW USA_SEARAD_NW STORM_SPEED STORM_DIR
1908211N30266 1908 25 NA GM NOT_NAMED 1908-07-29 00:00:00 TS 29.6000 -94.0000 30 hurdat_atl main 11 11 O_____________ hurdat_atl AL041908 29.6000 -94.0000 TD 30 -1 5 125
1908211N30266 1908 25 NA GM NOT_NAMED 1908-07-29 03:00:00 TS 29.4501 -93.7499 main 24 24 P_____________ AL041908 29.4501 -93.7499 TD 30 -1 5 125
1908211N30266 1908 25 NA GM NOT_NAMED 1908-07-29 06:00:00 TS 29.3000 -93.5000 30 hurdat_atl main 53 53 O_____________ hurdat_atl AL041908 29.3000 -93.5000 TD 30 -1 5 125
1908211N30266 1908 25 NA GM NOT_NAMED 1908-07-29 09:00:00 TS 29.1500 -93.2501 main 77 69 P_____________ AL041908 29.1500 -93.2501 TD 32 -1 5 125
1908211N30266 1908 25 NA GM NOT_NAMED 1908-07-29 12:00:00 TS 29.0000 -93.0000 35 hurdat_atl main 77 73 O_____________ hurdat_atl AL041908 29.0000 -93.0000 TS 35 0 5 125
1908211N30266 1908 25 NA GM NOT_NAMED 1908-07-29 15:00:00 TS 28.8500 -92.7501 main 91 83 P_____________ AL041908 28.8500 -92.7501 TS 37 0 5 124
1908211N30266 1908 25 NA GM NOT_NAMED 1908-07-29 18:00:00 TS 28.7000 -92.5000 40 hurdat_atl main 91 89 O_____________ hurdat_atl AL041908 28.7000 -92.5000 TS 40 0 5 124
1908211N30266 1908 25 NA GM NOT_NAMED 1908-07-29 21:00:00 TS 28.5500 -92.2350 main 100 100 P_____________ AL041908 28.5500 -92.2350 TS 42 0 5 124
1908211N30266 1908 25 NA GM NOT_NAMED 1908-07-30 00:00:00 TS 28.4000 -92.0000 45 hurdat_atl main 125 118 O_____________ hurdat_atl AL041908 28.4000 -92.0000 TS 45 0 5 131
1908211N30266 1908 25 NA GM NOT_NAMED 1908-07-30 03:00:00 TS 28.2349 -91.8275 main 130 130 P_____________ AL041908 28.2349 -91.8275 TS 47 0 4 139
1908211N30266 1908 25 NA GM NOT_NAMED 1908-07-30 06:00:00 TS 28.1000 -91.7000 50 hurdat_atl main 136 130 O_____________ hurdat_atl AL041908 28.1000 -91.7000 TS 50 0 3 135
1908211N30266 1908 25 NA GM NOT_NAMED 1908-07-30 09:00:00 TS 28.0200 -91.5850 main 140 136 P_____________ AL041908 28.0200 -91.5850 TS 50 0 2 120
1908211N30266 1908 25 NA GM NOT_NAMED 1908-07-30 12:00:00 TS 28.0000 -91.5000 50 hurdat_atl main 136 132 O_____________ hurdat_atl AL041908 28.0000 -91.5000 TS 50 0 1 87
1908211N30266 1908 25 NA GM NOT_NAMED 1908-07-30 15:00:00 TS 28.0275 -91.4425 main 132 121 P_____________ AL041908 28.0275 -91.4425 TS 50 0 1 40
1908211N30266 1908 25 NA GM NOT_NAMED 1908-07-30 18:00:00 TS 28.1000 -91.4000 50 hurdat_atl main 121 107 O_____________ hurdat_atl AL041908 28.1000 -91.4000 TS 50 0 2 32
1908211N30266 1908 25 NA GM NOT_NAMED 1908-07-30 21:00:00 TS 28.1850 -91.3351 main 107 97 P_____________ AL041908 28.1850 -91.3351 TS 50 0 2 25
1908211N30266 1908 25 NA GM NOT_NAMED 1908-07-31 00:00:00 TS 28.3000 -91.3000 50 hurdat_atl main 97 87 O_____________ hurdat_atl AL041908 28.3000 -91.3000 TS 50 0 3 2
1908211N30266 1908 25 NA GM NOT_NAMED 1908-07-31 03:00:00 TS 28.4350 -91.3350 main 87 73 P_____________ AL041908 28.4350 -91.3350 TS 50 0 3 344
1908211N30266 1908 25 NA GM NOT_NAMED 1908-07-31 06:00:00 TS 28.6000 -91.4000 50 hurdat_atl main 73 53 O_____________ hurdat_atl AL041908 28.6000 -91.4000 TS 50 0 4 345
1908211N30266 1908 25 NA GM NOT_NAMED 1908-07-31 09:00:00 TS 28.8000 -91.4425 main 53 44 P_____________ AL041908 28.8000 -91.4425 TS 50 0 4 348
1908211N30266 1908 25 NA GM NOT_NAMED 1908-07-31 12:00:00 TS 29.0000 -91.5000 50 hurdat_atl main 44 38 O_____________ hurdat_atl AL041908 29.0000 -91.5000 TS 50 0 4 341
1908211N30266 1908 25 NA GM NOT_NAMED 1908-07-31 15:00:00 TS 29.1571 -91.5838 main 33 24 P_____________ AL041908 29.1571 -91.5838 TS 50 0 3 330
1908211N30266 1908 25 NA GM NOT_NAMED 1908-07-31 18:00:00 TS 29.3000 -91.7000 50 hurdat_atl main 24 22 O_____________ hurdat_atl AL041908 29.3000 -91.7000 TS 50 0 3 322
1908211N30266 1908 25 NA GM NOT_NAMED 1908-07-31 21:00:00 TS 29.4299 -91.8282 main 22 14 P_____________ AL041908 29.4299 -91.8282 TS 50 0 4 319
1908211N30266 1908 25 NA GM NOT_NAMED 1908-07-31 22:00:00 TS 29.5000 -91.9000 50 hurdat_atl main 22 0 O_____________ hurdat_atl AL041908 29.5000 -91.9000 L TS 50 0 7 319
1908211N30266 1908 25 NA GM NOT_NAMED 1908-08-01 00:00:00 TS 29.7000 -92.1000 40 hurdat_atl main 0 0 O_____________ hurdat_atl AL041908 29.7000 -92.1000 TS 40 0 7 313
1908211N30266 1908 25 NA NA NOT_NAMED 1908-08-01 03:00:00 TS 29.9233 -92.4195 main 0 0 P_____________ AL041908 29.9233 -92.4195 TS 37 0 7 308
1908211N30266 1908 25 NA NA NOT_NAMED 1908-08-01 06:00:00 TS 30.1000 -92.7000 35 hurdat_atl main 0 0 O_____________ hurdat_atl AL041908 30.1000 -92.7000 TS 35 0 6 313
1908211N30266 1908 25 NA NA NOT_NAMED 1908-08-01 09:00:00 TS 30.2999 -92.8876 main 0 0 P_____________ AL041908 30.2999 -92.8876 TS 35 0 5 327
1908211N30266 1908 25 NA NA NOT_NAMED 1908-08-01 12:00:00 TS 30.5000 -93.0000 35 hurdat_atl main 0 0 O_____________ hurdat_atl AL041908 30.5000 -93.0000 TS 35 0 4 337
1908211N30266 1908 25 NA NA NOT_NAMED 1908-08-01 15:00:00 TS 30.7075 -93.0875 main 0 0 P_____________ AL041908 30.7075 -93.0875 TS 35 0 4 348
1908211N30266 1908 25 NA NA NOT_NAMED 1908-08-01 18:00:00 TS 30.9000 -93.1000 35 hurdat_atl main 0 0 O_____________ hurdat_atl AL041908 30.9000 -93.1000 TS 35 0 3 7
1908211N30266 1908 25 NA NA NOT_NAMED 1908-08-01 21:00:00 TS 31.0500 -93.0375 main 0 0 P_____________ AL041908 31.0500 -93.0375 TS 32 -1 3 30
1908211N30266 1908 25 NA NA NOT_NAMED 1908-08-02 00:00:00 TS 31.2000 -92.9000 30 hurdat_atl main 0 0 O_____________ hurdat_atl AL041908 31.2000 -92.9000 TD 30 -1 4 38
1908211N30266 1908 25 NA NA NOT_NAMED 1908-08-02 03:00:00 TS 31.3925 -92.7225 main 0 0 P_____________ AL041908 31.3925 -92.7225 TD 30 -1 5 40
1908211N30266 1908 25 NA NA NOT_NAMED 1908-08-02 06:00:00 TS 31.6000 -92.5000 30 hurdat_atl main 0 0 O_____________ hurdat_atl AL041908 31.6000 -92.5000 TD 30 -1 6 44
1908211N30266 1908 25 NA NA NOT_NAMED 1908-08-02 09:00:00 TS 31.8000 -92.2574 main 0 0 P_____________ AL041908 31.8000 -92.2574 TD 30 -1 6 47
1908211N30266 1908 25 NA NA NOT_NAMED 1908-08-02 12:00:00 TS 32.0000 -92.0000 30 hurdat_atl main 0 0 O_____________ hurdat_atl AL041908 32.0000 -92.0000 TD 30 -1 6 48
1908211N30266 1908 25 NA NA NOT_NAMED 1908-08-02 15:00:00 TS 32.2000 -91.7424 main 0 0 P_____________ AL041908 32.2000 -91.7424 TD 30 -1 6 47
1908211N30266 1908 25 NA NA NOT_NAMED 1908-08-02 18:00:00 TS 32.4000 -91.5000 30 hurdat_atl main 0 0 O_____________ hurdat_atl AL041908 32.4000 -91.5000 TD 30 -1 6 43
1908211N30266 1908 25 NA NA NOT_NAMED 1908-08-02 21:00:00 TS 32.6075 -91.2850 main 0 0 P_____________ AL041908 32.6075 -91.2850 TD 27 -1 5 40
1908211N30266 1908 25 NA NA NOT_NAMED 1908-08-03 00:00:00 TS 32.8000 -91.1000 25 hurdat_atl main 0 0 O_____________ hurdat_atl AL041908 32.8000 -91.1000 TD 25 -1 4 40
1908211N30266 1908 25 NA NA NOT_NAMED 1908-08-03 03:00:00 TS 32.9500 -90.9423 main 0 0 P_____________ AL041908 32.9500 -90.9423 TD 25 -1 4 40
1908211N30266 1908 25 NA NA NOT_NAMED 1908-08-03 06:00:00 TS 33.1000 -90.8000 25 hurdat_atl main 0 0 O_____________ hurdat_atl AL041908 33.1000 -90.8000 TD 25 -1 4 36
1908211N30266 1908 25 NA NA NOT_NAMED 1908-08-03 09:00:00 TS 33.2850 -90.6499 main 0 0 P_____________ AL041908 33.2850 -90.6499 TD 25 -1 5 32
1908211N30266 1908 25 NA NA NOT_NAMED 1908-08-03 12:00:00 TS 33.5000 -90.5000 25 hurdat_atl main 0 0 O_____________ hurdat_atl AL041908 33.5000 -90.5000 TD 25 -1 5 29
1908211N30266 1908 25 NA NA NOT_NAMED 1908-08-03 15:00:00 TS 33.7425 -90.3502 main 0 0 P_____________ AL041908 33.7425 -90.3502 TD 25 -1 6 27
1908211N30266 1908 25 NA NA NOT_NAMED 1908-08-03 18:00:00 TS 34.0000 -90.2000 25 hurdat_atl main 0 O_____________ hurdat_atl AL041908 34.0000 -90.2000 TD 25 -1 6 26

IBTrACS Databaseについて

本データベースは、米国NOAAが公開する1842年以降の世界の熱帯低気圧のベストトラックデータアーカイブInternational Best Track Archive for Climate Stewardship (IBTrACS)を、ウェブで閲覧しやすい形式に変換したものです。

最終更新日:2021-10-21